createdAt,value
2017-09-02T00:00:03.516Z,11.40
2017-09-02T00:02:30.256Z,11.25
2017-09-02T00:04:56.958Z,11.30
2017-09-02T00:07:23.631Z,11.25
2017-09-02T00:09:50.324Z,11.27
2017-09-02T00:12:16.983Z,12.10
2017-09-02T00:14:43.647Z,11.90
2017-09-02T00:17:10.307Z,11.82
2017-09-02T00:19:36.983Z,11.32
2017-09-02T00:22:03.756Z,11.10
2017-09-02T00:24:30.414Z,11.68
2017-09-02T00:26:57.344Z,12.75
2017-09-02T01:51:20.404Z,8.70
2017-09-02T01:53:47.064Z,9.20
2017-09-02T01:56:13.723Z,9.45
2017-09-02T01:58:40.371Z,8.73
2017-09-02T02:01:07.029Z,8.95
2017-09-02T02:03:33.711Z,9.10
2017-09-02T02:06:00.368Z,8.38
2017-09-02T02:08:27.051Z,8.57
2017-09-02T02:10:53.731Z,9.43
2017-09-02T02:13:20.423Z,9.65
2017-09-02T02:15:47.079Z,8.00
2017-09-02T02:18:13.767Z,9.45
2017-09-02T02:20:40.428Z,8.50
2017-09-02T02:23:07.103Z,8.95
2017-09-02T02:25:33.768Z,8.93
2017-09-02T02:28:00.420Z,8.35
2017-09-02T02:30:27.079Z,8.93
2017-09-02T02:32:53.744Z,9.15
2017-09-02T02:35:20.432Z,8.60
2017-09-02T02:37:47.083Z,8.82
2017-09-02T02:40:13.762Z,8.70
2017-09-02T02:42:40.424Z,10.10
2017-09-02T02:45:07.103Z,9.65
2017-09-02T02:47:33.768Z,10.07
2017-09-02T02:50:00.452Z,9.13
2017-09-02T02:52:27.111Z,9.27
2017-09-02T02:54:53.817Z,9.65
2017-09-02T02:57:20.479Z,8.75
2017-09-02T02:59:47.170Z,9.82
2017-09-02T03:02:13.835Z,9.48
2017-09-02T03:04:40.491Z,9.68
2017-09-02T03:07:07.170Z,9.15
2017-09-02T03:09:33.832Z,9.93
2017-09-02T03:12:00.520Z,10.40
2017-09-02T03:14:27.180Z,9.93
2017-09-02T03:16:53.867Z,10.02
2017-09-02T03:19:20.536Z,10.85
2017-09-02T03:21:47.220Z,10.40
2017-09-02T03:24:13.883Z,11.45
2017-09-02T03:26:40.574Z,11.18
2017-09-02T03:29:07.240Z,10.43
2017-09-02T03:31:33.927Z,10.57
2017-09-02T03:34:00.592Z,11.48
2017-09-02T03:36:27.259Z,9.52
2017-09-02T03:38:53.919Z,9.80
2017-09-02T03:41:20.585Z,11.12
2017-09-02T03:43:47.246Z,11.05
2017-09-02T03:46:13.907Z,10.52
2017-09-02T03:48:40.576Z,10.95
2017-09-02T03:51:07.239Z,10.55
2017-09-02T03:53:33.932Z,11.55
2017-09-02T03:56:00.600Z,10.57
2017-09-02T03:58:27.290Z,10.63
2017-09-02T04:00:53.955Z,11.10
2017-09-02T04:03:20.643Z,12.37
2017-09-02T04:05:47.393Z,10.70
2017-09-02T04:08:14.084Z,10.10
2017-09-02T04:10:40.752Z,10.65
2017-09-02T04:13:07.447Z,10.90
2017-09-02T04:15:34.139Z,11.10
2017-09-02T04:18:00.804Z,10.02
2017-09-02T04:20:27.495Z,10.90
2017-09-02T04:22:54.159Z,10.75
2017-09-02T04:25:20.847Z,10.15
2017-09-02T04:27:47.512Z,10.10
2017-09-02T04:30:14.195Z,11.15
2017-09-02T04:32:40.860Z,10.57
2017-09-02T04:35:07.559Z,10.93
2017-09-02T04:37:34.224Z,11.52
2017-09-02T04:40:00.887Z,11.52
2017-09-02T04:42:27.570Z,10.25
2017-09-02T04:44:54.231Z,10.57
2017-09-02T04:47:20.919Z,10.80
2017-09-02T04:49:47.579Z,10.23
2017-09-02T04:52:14.271Z,11.45
2017-09-02T04:54:40.934Z,11.20
2017-09-02T04:57:07.624Z,11.30
2017-09-02T04:59:34.290Z,11.30
2017-09-02T05:02:00.986Z,10.32
2017-09-02T05:04:27.648Z,10.10
2017-09-02T05:06:54.342Z,10.40
2017-09-02T05:09:21.011Z,11.07
2017-09-02T05:11:47.679Z,10.95
2017-09-02T05:14:14.376Z,10.88
2017-09-02T05:16:41.044Z,12.00
2017-09-02T05:19:07.711Z,12.48
2017-09-02T05:21:34.385Z,11.90
2017-09-02T05:24:01.047Z,11.32
2017-09-02T05:26:27.716Z,12.05
2017-09-02T05:28:54.383Z,11.70
2017-09-02T05:31:21.048Z,11.95
2017-09-02T05:33:47.712Z,10.93
2017-09-02T05:36:14.375Z,11.68
2017-09-02T05:38:41.063Z,10.60
2017-09-02T05:41:07.728Z,11.50
2017-09-02T05:43:34.431Z,11.32
2017-09-02T05:46:01.095Z,10.23
2017-09-02T05:48:28.043Z,11.27
2017-09-02T05:50:54.727Z,13.20
2017-09-02T05:53:21.393Z,11.20
2017-09-02T05:55:48.087Z,10.52
2017-09-02T05:58:14.747Z,11.88
2017-09-02T06:00:41.439Z,10.43
2017-09-02T06:03:08.104Z,10.80
2017-09-02T06:05:34.796Z,10.98
2017-09-02T06:08:01.461Z,11.95
2017-09-02T06:10:28.127Z,11.95
2017-09-02T06:12:54.800Z,10.18
2017-09-02T06:15:21.468Z,11.05
2017-09-02T06:17:48.156Z,10.98
2017-09-02T06:20:14.819Z,11.23
2017-09-02T06:22:41.507Z,11.20
2017-09-02T06:25:08.171Z,10.77
2017-09-02T06:27:34.920Z,9.60
2017-09-02T06:30:01.579Z,10.77
2017-09-02T06:32:28.272Z,9.95
2017-09-02T06:34:54.943Z,10.32
2017-09-02T06:37:21.647Z,10.98
2017-09-02T06:39:48.366Z,10.48
2017-09-02T06:42:15.031Z,10.75
2017-09-02T06:44:41.696Z,11.20
2017-09-02T06:47:08.362Z,9.80
2017-09-02T06:49:35.047Z,9.73
2017-09-02T06:52:01.716Z,9.57
2017-09-02T06:54:28.404Z,8.83
2017-09-02T06:56:55.063Z,9.60
2017-09-02T06:59:21.764Z,9.70
2017-09-02T07:01:48.426Z,10.10
2017-09-02T07:04:15.112Z,11.03
2017-09-02T07:06:41.771Z,10.70
2017-09-02T07:09:08.465Z,9.63
2017-09-02T07:11:35.129Z,9.20
2017-09-02T07:14:01.820Z,10.30
2017-09-02T07:16:28.482Z,10.00
2017-09-02T07:18:55.184Z,10.70
2017-09-02T07:21:21.856Z,10.80
2017-09-02T07:23:48.520Z,9.90
2017-09-02T07:26:15.180Z,9.87
2017-09-02T07:28:41.864Z,9.33
2017-09-02T07:31:08.551Z,10.17
2017-09-02T07:33:35.212Z,9.77
2017-09-02T07:36:01.899Z,10.07
2017-09-02T07:38:28.560Z,10.30
2017-09-02T07:40:55.247Z,9.87
2017-09-02T07:43:21.908Z,9.90
2017-09-02T07:45:48.596Z,11.30
2017-09-02T07:48:15.256Z,11.30
2017-09-02T07:50:41.947Z,10.87
2017-09-02T07:53:08.611Z,10.80
2017-09-02T07:55:35.264Z,10.20
2017-09-02T07:58:01.923Z,10.67
2017-09-02T08:00:28.579Z,9.90
2017-09-02T08:02:55.240Z,10.30
2017-09-02T08:05:21.903Z,11.80
2017-09-02T08:07:48.592Z,10.93
2017-09-02T08:10:15.256Z,10.53
2017-09-02T08:12:41.939Z,11.67
2017-09-02T08:15:08.604Z,11.47
2017-09-02T08:17:35.295Z,12.03
2017-09-02T08:20:01.952Z,12.90
2017-09-02T08:22:28.612Z,15.30
2017-09-02T08:24:55.276Z,13.40
2017-09-02T08:27:21.935Z,13.13
2017-09-02T08:29:48.596Z,12.37
2017-09-02T08:32:15.255Z,14.30
2017-09-02T08:34:41.919Z,12.57
2017-09-02T08:37:08.591Z,11.20
2017-09-02T08:39:35.276Z,13.50
2017-09-02T08:42:01.931Z,14.50
2017-09-02T08:44:28.611Z,14.40
2017-09-02T08:46:55.276Z,15.60
2017-09-02T08:49:21.974Z,15.97
2017-09-02T08:51:48.636Z,17.63
2017-09-02T08:54:15.307Z,17.93
2017-09-02T08:56:41.964Z,17.07
2017-09-02T08:59:08.632Z,14.87
2017-09-02T09:01:35.291Z,15.63
2017-09-02T09:04:01.955Z,15.37
2017-09-02T09:06:28.619Z,11.50
2017-09-02T09:08:55.378Z,11.57
2017-09-02T09:11:22.068Z,11.20
2017-09-02T09:13:48.721Z,9.40
2017-09-02T09:16:15.401Z,9.00
2017-09-02T09:18:42.074Z,7.40
2017-09-02T09:21:08.751Z,6.00
2017-09-02T09:23:35.403Z,7.40
2017-09-02T09:26:02.101Z,6.50
2017-09-02T09:28:28.751Z,6.43
2017-09-02T09:30:55.408Z,6.50
2017-09-02T09:33:22.058Z,6.30
2017-09-02T09:35:49.099Z,5.97
2017-09-02T09:38:15.746Z,5.57
2017-09-02T09:40:42.401Z,5.20
2017-09-02T09:43:09.055Z,6.07
2017-09-02T09:45:35.708Z,4.57
2017-09-02T09:48:02.398Z,4.53
2017-09-02T09:50:29.051Z,5.13
2017-09-02T09:52:55.723Z,5.30
2017-09-02T09:55:22.375Z,5.07
2017-09-02T09:57:49.052Z,4.67
2017-09-02T10:00:15.703Z,5.70
2017-09-02T10:02:42.375Z,5.17
2017-09-02T10:05:09.036Z,4.13
2017-09-02T10:07:35.736Z,3.80
2017-09-02T10:10:02.731Z,3.70
2017-09-02T10:12:29.391Z,3.40
2017-09-02T10:14:56.044Z,3.70
2017-09-02T10:17:22.703Z,4.23
2017-09-02T10:19:49.355Z,4.13
2017-09-02T10:22:16.007Z,4.23
2017-09-02T10:24:42.659Z,3.73
2017-09-02T10:27:09.312Z,3.23
2017-09-02T10:29:35.984Z,3.70
2017-09-02T10:32:02.640Z,3.67
2017-09-02T10:34:29.317Z,3.37
2017-09-02T10:36:55.968Z,4.20
2017-09-02T10:39:22.695Z,3.90
2017-09-02T10:41:49.352Z,3.53
2017-09-02T10:44:16.005Z,3.63
2017-09-02T10:46:42.660Z,4.10
2017-09-02T10:49:09.311Z,3.83
2017-09-02T10:51:35.967Z,3.73
2017-09-02T10:54:02.615Z,3.60
2017-09-02T10:56:29.267Z,3.40
2017-09-02T10:58:55.924Z,3.53
2017-09-02T11:01:22.580Z,3.40
2017-09-02T11:03:49.227Z,3.37
2017-09-02T11:06:15.878Z,3.83
2017-09-02T11:08:42.591Z,8.83
2017-09-02T11:11:09.252Z,3.80
2017-09-02T11:13:35.907Z,4.40
2017-09-02T11:16:02.567Z,4.23
2017-09-02T11:18:29.220Z,3.50
2017-09-02T11:20:55.876Z,4.10
2017-09-02T11:23:22.527Z,3.97
2017-09-02T11:25:49.235Z,3.60
2017-09-02T11:28:15.914Z,3.10
2017-09-02T11:30:42.571Z,3.60
2017-09-02T11:33:09.223Z,3.20
2017-09-02T11:35:35.879Z,3.23
2017-09-02T11:38:02.586Z,3.20
2017-09-02T11:40:29.243Z,2.90
2017-09-02T11:42:55.890Z,2.90
2017-09-02T11:45:22.543Z,3.50
2017-09-02T11:47:49.200Z,3.03
2017-09-02T11:50:15.851Z,3.13
2017-09-02T11:52:42.504Z,3.90
2017-09-02T11:55:09.154Z,3.40
2017-09-02T11:57:35.812Z,3.40
2017-09-02T12:00:02.471Z,3.70
2017-09-02T12:02:29.126Z,3.70
2017-09-02T12:04:55.796Z,4.90
2017-09-02T12:07:22.451Z,5.30
2017-09-02T12:09:49.146Z,5.57
2017-09-02T12:12:15.799Z,5.23
2017-09-02T12:14:42.464Z,5.63
2017-09-02T12:17:09.142Z,5.57
2017-09-02T12:19:35.808Z,5.43
2017-09-02T12:22:02.490Z,4.95
2017-09-02T12:24:29.152Z,5.60
2017-09-02T12:26:55.835Z,5.70
2017-09-02T12:29:22.497Z,5.80
2017-09-02T12:31:49.182Z,4.82
2017-09-02T12:34:15.839Z,4.95
2017-09-02T12:36:42.523Z,5.20
2017-09-02T12:39:09.175Z,5.07
2017-09-02T12:41:35.840Z,5.25
2017-09-02T12:44:02.501Z,4.95
2017-09-02T12:46:29.156Z,5.35
2017-09-02T12:48:55.843Z,5.68
2017-09-02T12:51:22.504Z,5.87
2017-09-02T12:53:49.192Z,6.05
2017-09-02T12:56:15.852Z,6.32
2017-09-02T12:58:42.538Z,6.72
2017-09-02T13:01:09.212Z,6.80
2017-09-02T13:03:35.915Z,6.80
2017-09-02T13:06:02.580Z,6.55
2017-09-02T13:08:29.255Z,7.32
2017-09-02T13:10:55.924Z,5.00
2017-09-02T13:13:22.584Z,6.03
2017-09-02T13:15:49.286Z,5.85
2017-09-02T13:18:15.944Z,6.47
2017-09-02T13:20:42.622Z,5.20
2017-09-02T13:23:09.280Z,4.80
2017-09-02T13:25:35.965Z,5.10
2017-09-02T13:28:02.622Z,4.60
2017-09-02T13:30:29.307Z,5.30
2017-09-02T13:32:55.963Z,3.57
2017-09-02T13:35:22.612Z,4.20
2017-09-02T13:37:49.267Z,3.90
2017-09-02T13:40:15.924Z,3.60
2017-09-02T13:42:42.575Z,3.47
2017-09-02T13:45:09.236Z,3.80
2017-09-02T13:47:35.919Z,3.50
2017-09-02T13:50:02.595Z,3.70
2017-09-02T13:52:29.271Z,4.43
2017-09-02T13:54:55.941Z,3.40
2017-09-02T13:57:22.620Z,3.37
2017-09-02T13:59:49.275Z,3.20
2017-09-02T14:02:15.972Z,3.20
2017-09-02T14:04:42.632Z,3.00
2017-09-02T14:07:09.284Z,3.30
2017-09-02T14:09:35.939Z,3.43
2017-09-02T14:12:02.608Z,3.17
2017-09-02T14:14:29.301Z,3.30
2017-09-02T14:16:55.960Z,3.90
2017-09-02T14:19:22.646Z,3.10
2017-09-02T14:21:49.298Z,3.70
2017-09-02T14:24:15.976Z,3.50
2017-09-02T14:26:42.636Z,4.07
2017-09-02T14:29:09.327Z,4.07
2017-09-02T14:31:35.984Z,4.37
2017-09-02T14:34:02.653Z,4.53
2017-09-02T14:36:29.316Z,3.90
2017-09-02T14:38:55.967Z,3.73
2017-09-02T14:41:22.619Z,3.83
2017-09-02T14:43:49.279Z,4.03
2017-09-02T14:46:15.935Z,3.90
2017-09-02T14:48:42.599Z,3.53
2017-09-02T14:51:09.294Z,3.37
2017-09-02T14:53:35.951Z,3.87
2017-09-02T14:56:02.608Z,3.80
2017-09-02T14:58:29.263Z,4.13
2017-09-02T15:00:55.928Z,4.00
2017-09-02T15:03:22.588Z,4.43
2017-09-02T15:05:49.279Z,4.68
2017-09-02T15:08:15.942Z,5.03
2017-09-02T15:10:42.624Z,4.10
2017-09-02T15:13:09.308Z,3.85
2017-09-02T15:15:35.994Z,3.90
2017-09-02T15:18:02.684Z,3.67
2017-09-02T15:20:29.355Z,3.80
2017-09-02T15:22:56.072Z,3.50
2017-09-02T15:25:22.772Z,3.40
2017-09-02T15:27:49.457Z,3.65
2017-09-02T15:30:16.134Z,3.60
2017-09-02T15:32:42.799Z,3.28
2017-09-02T15:35:09.459Z,3.67
2017-09-02T15:37:36.125Z,3.22
2017-09-02T15:40:02.804Z,3.35
2017-09-02T15:42:29.472Z,3.42
2017-09-02T15:44:56.141Z,3.25
2017-09-02T15:47:22.803Z,3.60
2017-09-02T15:49:49.516Z,3.78
2017-09-02T15:52:16.184Z,4.07
2017-09-02T15:54:42.876Z,4.45
2017-09-02T15:57:09.547Z,4.60
2017-09-02T15:59:36.271Z,5.07
2017-09-02T16:02:02.940Z,4.32
2017-09-02T16:04:29.608Z,4.45
2017-09-02T16:06:56.279Z,4.70
2017-09-02T16:09:22.952Z,4.25
2017-09-02T16:11:49.627Z,4.70
2017-09-02T16:14:16.303Z,4.37
2017-09-02T16:19:15.971Z,3.53
2017-09-02T16:21:42.696Z,3.60
2017-09-02T16:24:09.363Z,3.92
2017-09-02T16:26:36.061Z,3.60
2017-09-02T16:29:02.720Z,4.30
2017-09-02T16:31:29.376Z,5.57
2017-09-02T16:33:56.027Z,5.90
2017-09-02T16:36:22.675Z,5.22
2017-09-02T16:38:49.327Z,5.30
2017-09-02T16:41:15.983Z,4.68
2017-09-02T16:43:42.636Z,4.75
2017-09-02T16:46:09.292Z,5.07
2017-09-02T16:48:35.943Z,5.40
2017-09-02T16:51:02.592Z,5.90
2017-09-02T16:53:29.239Z,5.37
2017-09-02T16:55:55.899Z,5.55
2017-09-02T16:58:22.555Z,6.00
2017-09-02T17:00:49.216Z,6.22
2017-09-02T17:03:15.892Z,5.40
2017-09-02T17:05:42.549Z,5.70
2017-09-02T17:08:09.262Z,5.03
2017-09-02T17:10:35.947Z,9.10
2017-09-02T17:13:02.627Z,5.30
2017-09-02T17:15:29.296Z,9.02
2017-09-02T17:17:55.972Z,6.95
2017-09-02T17:20:22.665Z,6.10
2017-09-02T17:22:49.319Z,6.32
2017-09-02T17:25:16.008Z,6.93
2017-09-02T17:27:42.671Z,6.60
2017-09-02T17:30:09.350Z,5.85
2017-09-02T17:32:36.046Z,4.60
2017-09-02T17:35:02.765Z,5.78
2017-09-02T17:37:29.463Z,6.18
2017-09-02T17:39:56.133Z,6.75
2017-09-02T17:42:22.862Z,6.00
2017-09-02T17:44:49.523Z,6.28
2017-09-02T17:47:16.204Z,6.70
2017-09-02T17:49:42.855Z,7.85
2017-09-02T17:52:09.574Z,7.80
2017-09-02T17:54:36.240Z,6.28
2017-09-02T17:57:02.906Z,6.03
2017-09-02T17:59:29.576Z,6.82
2017-09-02T18:01:56.263Z,6.05
2017-09-02T18:04:22.919Z,7.05
2017-09-02T18:06:49.637Z,10.23
2017-09-02T18:09:16.331Z,9.60
2017-09-02T18:11:43.042Z,9.90
2017-09-02T18:14:09.732Z,10.75
2017-09-02T18:16:36.466Z,10.63
2017-09-02T18:19:03.151Z,9.88
2017-09-02T18:21:29.827Z,10.23
2017-09-02T18:23:56.522Z,9.70
2017-09-02T18:26:23.205Z,11.25
2017-09-02T18:28:49.901Z,10.73
2017-09-02T18:31:16.589Z,12.13
2017-09-02T18:33:43.291Z,10.00
2017-09-02T18:36:09.975Z,10.88
2017-09-02T18:38:36.693Z,10.15
2017-09-02T18:41:03.353Z,10.63
2017-09-02T18:43:30.032Z,11.05
2017-09-02T18:45:56.696Z,12.20
2017-09-02T18:48:23.352Z,9.80
2017-09-02T18:50:50.056Z,10.05
2017-09-02T18:53:16.755Z,9.45
2017-09-02T18:55:43.455Z,10.15
2017-09-02T18:58:10.140Z,10.88
2017-09-02T19:00:36.816Z,10.77
2017-09-02T19:03:03.516Z,9.98
2017-09-02T19:05:30.211Z,11.30
2017-09-02T19:07:56.871Z,12.52
2017-09-02T19:10:23.587Z,12.07
2017-09-02T19:12:50.253Z,11.80
2017-09-02T19:15:16.911Z,12.35
2017-09-02T19:17:43.613Z,12.55
2017-09-02T19:20:10.335Z,12.30
2017-09-02T19:22:37.035Z,12.15
2017-09-02T19:25:03.716Z,11.45
2017-09-02T19:27:30.408Z,11.50
2017-09-02T19:29:57.072Z,10.98
2017-09-02T19:32:23.735Z,11.12
2017-09-02T19:34:50.398Z,10.40
2017-09-02T19:37:17.098Z,9.80
2017-09-02T19:39:43.821Z,10.15
2017-09-02T19:42:10.480Z,10.80
2017-09-02T19:44:37.151Z,11.77
2017-09-02T19:47:03.815Z,12.43
2017-09-02T19:49:30.499Z,10.25
2017-09-02T19:51:57.237Z,10.73
2017-09-02T19:54:23.931Z,12.02
2017-09-02T19:56:50.608Z,12.07
2017-09-02T19:59:17.335Z,11.98
2017-09-02T20:01:44.020Z,11.30
2017-09-02T20:04:10.691Z,11.68
2017-09-02T20:06:37.367Z,9.50
2017-09-02T20:09:04.032Z,10.18
2017-09-02T20:11:30.687Z,9.50
2017-09-02T20:13:57.347Z,9.27
2017-09-02T20:16:23.999Z,9.50
2017-09-02T20:18:50.663Z,9.27
2017-09-02T20:21:17.323Z,10.77
2017-09-02T20:23:43.991Z,10.05
2017-09-02T20:26:10.716Z,9.50
2017-09-02T20:28:37.380Z,10.18
2017-09-02T20:31:04.871Z,9.68
2017-09-02T20:33:31.540Z,9.38
2017-09-02T20:35:58.217Z,11.07
2017-09-02T20:38:24.876Z,9.60
2017-09-02T20:40:51.539Z,9.95
2017-09-02T20:43:18.200Z,9.20
2017-09-02T20:45:44.876Z,10.93
2017-09-02T20:48:11.536Z,9.85
2017-09-02T20:50:38.187Z,9.85
2017-09-02T20:53:04.847Z,10.27
2017-09-02T20:55:31.508Z,9.52
2017-09-02T20:57:58.200Z,9.18
2017-09-02T21:00:24.861Z,9.95
2017-09-02T21:02:51.523Z,9.25
2017-09-02T21:05:18.207Z,9.65
2017-09-02T21:07:44.865Z,8.00
2017-09-02T21:10:11.527Z,8.80
2017-09-02T21:12:38.188Z,10.73
2017-09-02T21:15:04.845Z,9.70
2017-09-02T21:17:31.509Z,10.15
2017-09-02T21:19:58.172Z,10.05
2017-09-02T21:22:24.828Z,9.43
2017-09-02T21:24:51.488Z,10.07
2017-09-02T21:27:18.151Z,9.18
2017-09-02T21:29:44.835Z,10.18
2017-09-02T21:32:11.495Z,9.80
2017-09-02T21:34:38.204Z,10.35
2017-09-02T21:37:04.863Z,9.70
2017-09-02T21:39:31.523Z,10.73
2017-09-02T21:41:58.188Z,10.02
2017-09-02T21:44:24.856Z,13.23
2017-09-02T21:46:51.516Z,11.98
2017-09-02T21:49:18.171Z,10.82
2017-09-02T21:51:44.839Z,11.25
2017-09-02T21:54:11.508Z,10.07
2017-09-02T21:56:38.167Z,11.12
2017-09-02T21:59:04.831Z,10.95
2017-09-02T22:01:31.532Z,11.00
2017-09-02T22:03:58.195Z,11.48
2017-09-02T22:06:24.864Z,12.15
2017-09-02T22:08:51.523Z,11.35
2017-09-02T22:11:18.190Z,11.35
2017-09-02T22:13:44.862Z,13.27
2017-09-02T22:16:11.524Z,13.27
2017-09-02T22:18:38.183Z,12.68
2017-09-02T22:21:04.840Z,11.52
2017-09-02T22:23:31.508Z,11.27
2017-09-02T22:25:58.171Z,11.65
2017-09-02T22:28:24.822Z,9.90
2017-09-02T22:30:51.484Z,9.00
2017-09-02T22:33:18.179Z,10.65
2017-09-02T22:35:44.843Z,10.73
2017-09-02T22:38:11.508Z,10.77
2017-09-02T22:40:38.172Z,10.52
2017-09-02T22:43:04.841Z,9.48
2017-09-02T22:45:31.504Z,11.65
2017-09-02T22:47:58.172Z,11.00
2017-09-02T22:50:24.831Z,11.85
2017-09-02T22:52:51.492Z,12.40
2017-09-02T22:55:18.160Z,12.55
2017-09-02T22:57:44.824Z,11.90
2017-09-02T23:00:11.532Z,13.60
2017-09-02T23:02:38.199Z,13.38
2017-09-02T23:05:04.860Z,13.73
2017-09-02T23:07:31.556Z,12.43
2017-09-02T23:09:58.220Z,13.05
2017-09-02T23:12:24.899Z,15.10
2017-09-02T23:14:51.555Z,12.50
2017-09-02T23:17:18.240Z,12.40
2017-09-02T23:19:44.895Z,12.13
2017-09-02T23:22:11.580Z,11.65
2017-09-02T23:24:38.239Z,12.73
2017-09-02T23:27:04.924Z,13.50
2017-09-02T23:29:31.587Z,11.65
2017-09-02T23:31:58.387Z,12.50
2017-09-02T23:34:25.043Z,12.37
2017-09-02T23:36:51.703Z,12.23
2017-09-02T23:39:18.371Z,12.30
2017-09-02T23:41:45.031Z,12.37
2017-09-02T23:44:11.715Z,11.68
2017-09-02T23:46:38.376Z,12.82
2017-09-02T23:49:05.060Z,13.13
2017-09-02T23:51:31.719Z,13.20
2017-09-02T23:53:58.403Z,13.27
2017-09-02T23:56:25.070Z,12.25
2017-09-02T23:58:51.756Z,13.20
